Time;durP1;ratioP1;P1;durP2;ratioP2;P2;SDS_P1;SDS_P2;PMS_P1;PMS_P2;Temp;Humidity;BMP_temperature;BMP_pressure;BME280_temperature;BME280_humidity;BME280_pressure;Samples;Min_cycle;Max_cycle;Signal;HPM_P1;HPM_P2
2023/10/09 00:01:44;;;;;;;22.67;6.73;;;15.50;70.20;;;;;;5026134;28;20914;-71
2023/10/09 00:04:13;;;;;;;19.70;6.53;;;15.30;70.40;;;;;;5028883;28;20444;-72
2023/10/09 00:06:42;;;;;;;18.60;5.90;;;15.20;70.50;;;;;;5027947;28;20486;-71
2023/10/09 00:11:56;;;;;;;15.47;5.07;;;15.00;71.60;;;;;;5025422;28;20415;-71
2023/10/09 00:14:47;;;;;;;19.90;5.83;;;15.10;71.40;;;;;;5026142;28;20433;-73
2023/10/09 00:19:42;;;;;;;18.30;5.43;;;15.10;71.30;;;;;;5031723;28;20437;-71
2023/10/09 00:22:20;;;;;;;25.23;6.73;;;15.10;71.00;;;;;;5032731;28;20432;-73
2023/10/09 00:24:49;;;;;;;26.30;6.13;;;15.10;71.30;;;;;;5027976;28;20429;-73
2023/10/09 00:27:15;;;;;;;28.23;7.47;;;15.00;71.00;;;;;;5024644;28;21396;-72
2023/10/09 00:29:45;;;;;;;25.90;5.80;;;15.10;70.70;;;;;;5029051;28;20427;-72
2023/10/09 00:32:27;;;;;;;22.10;5.60;;;15.10;71.00;;;;;;5032183;28;20486;-72
2023/10/09 00:34:58;;;;;;;19.43;6.33;;;15.10;70.70;;;;;;5024907;28;20464;-72
2023/10/09 00:37:25;;;;;;;18.47;6.20;;;15.10;70.70;;;;;;5025246;28;20477;-73
2023/10/09 00:39:57;;;;;;;24.97;6.60;;;15.10;70.50;;;;;;5030678;28;20494;-72
2023/10/09 00:42:35;;;;;;;22.83;5.87;;;15.20;70.10;;;;;;5028658;28;21903;-72
2023/10/09 00:45:07;;;;;;;17.60;5.60;;;15.20;70.10;;;;;;5022664;28;20439;-71
2023/10/09 00:47:34;;;;;;;22.83;5.47;;;15.30;69.90;;;;;;5025992;28;21290;-72
2023/10/09 00:50:23;;;;;;;20.53;6.10;;;15.30;70.20;;;;;;5031058;28;20424;-71
2023/10/09 00:53:02;;;;;;;17.50;5.83;;;15.20;70.20;;;;;;5026502;28;20527;-73
2023/10/09 00:55:45;;;;;;;19.23;6.30;;;15.20;70.20;;;;;;5031913;28;21040;-72
2023/10/09 00:58:14;;;;;;;18.20;5.87;;;15.30;70.10;;;;;;5021862;28;20812;-74
2023/10/09 01:03:19;;;;;;;16.57;5.30;;;15.30;70.40;;;;;;5030830;28;20956;-73
2023/10/09 01:05:57;;;;;;;17.67;5.40;;;15.30;70.20;;;;;;5027606;28;20463;-73
2023/10/09 01:08:32;;;;;;;22.90;6.20;;;15.30;70.20;;;;;;5029531;28;20420;-73
2023/10/09 01:11:09;;;;;;;19.40;6.43;;;15.20;70.70;;;;;;5014047;28;20451;-73
2023/10/09 01:13:53;;;;;;;18.00;5.90;;;15.20;70.80;;;;;;5020131;28;20423;-71
2023/10/09 01:16:23;;;;;;;22.27;5.60;;;15.20;70.80;;;;;;5024520;28;20483;-72
2023/10/09 01:18:51;;;;;;;20.00;6.20;;;15.20;70.80;;;;;;5029852;28;20500;-72
2023/10/09 01:21:24;;;;;;;19.90;6.73;;;15.20;70.80;;;;;;5027854;28;20446;-73
2023/10/09 01:26:44;;;;;;;23.00;5.60;;;15.20;71.30;;;;;;5017310;28;20464;-73
2023/10/09 01:29:14;;;;;;;23.17;6.50;;;15.20;71.10;;;;;;5023632;28;20505;-73
2023/10/09 01:31:46;;;;;;;10.57;5.10;;;15.10;71.60;;;;;;5022331;28;20420;-73
2023/10/09 01:34:12;;;;;;;17.10;5.50;;;15.00;71.80;;;;;;5019766;28;20943;-73
2023/10/09 01:36:39;;;;;;;24.13;6.10;;;15.10;71.80;;;;;;5020834;28;20498;-73
2023/10/09 01:41:52;;;;;;;21.80;6.20;;;15.10;71.80;;;;;;5037487;28;20420;-72
2023/10/09 01:44:18;;;;;;;20.87;6.73;;;15.10;71.70;;;;;;5029363;28;20424;-71
2023/10/09 01:46:45;;;;;;;23.10;6.50;;;15.10;71.70;;;;;;5025441;28;20485;-71
2023/10/09 01:49:20;;;;;;;18.83;6.20;;;15.10;71.30;;;;;;5029525;28;20946;-72
2023/10/09 01:51:50;;;;;;;19.50;5.47;;;15.10;71.00;;;;;;5029208;28;20446;-71
2023/10/09 01:54:33;;;;;;;25.03;6.70;;;15.10;71.30;;;;;;5029606;28;20555;-72
2023/10/09 01:57:05;;;;;;;28.90;7.10;;;15.20;70.80;;;;;;5020175;28;20487;-73
2023/10/09 01:59:37;;;;;;;21.60;5.43;;;15.20;70.40;;;;;;5028284;28;20433;-72
2023/10/09 02:02:15;;;;;;;17.73;6.60;;;15.20;70.10;;;;;;5029451;28;20429;-72
2023/10/09 02:04:41;;;;;;;21.40;6.30;;;15.30;69.90;;;;;;5029532;28;20468;-73
2023/10/09 02:07:10;;;;;;;22.53;6.30;;;15.20;70.20;;;;;;5021945;28;20450;-72
2023/10/09 02:09:44;;;;;;;17.50;5.50;;;15.20;70.40;;;;;;5028367;28;20195;-72
2023/10/09 02:12:10;;;;;;;15.00;4.90;;;15.20;70.10;;;;;;5024666;28;20421;-72
2023/10/09 02:14:41;;;;;;;19.30;5.70;;;15.30;70.10;;;;;;5030469;28;20416;-73
2023/10/09 02:17:17;;;;;;;15.30;5.30;;;15.40;69.70;;;;;;5019940;28;20228;-72
2023/10/09 02:19:48;;;;;;;19.97;6.00;;;15.50;68.80;;;;;;5024695;28;20485;-70
2023/10/09 02:22:14;;;;;;;19.00;5.80;;;15.60;68.60;;;;;;5018801;28;20412;-70
2023/10/09 02:24:57;;;;;;;19.93;5.80;;;15.50;69.20;;;;;;5020364;28;20423;-70
2023/10/09 02:30:19;;;;;;;20.37;5.70;;;15.50;69.20;;;;;;5017768;28;20768;-69
2023/10/09 02:32:52;;;;;;;19.20;5.47;;;15.50;69.40;;;;;;5029118;28;21302;-70
2023/10/09 02:38:17;;;;;;;29.10;5.67;;;15.60;68.50;;;;;;5026174;28;20506;-72
2023/10/09 02:43:44;;;;;;;21.40;6.50;;;15.70;68.30;;;;;;5023971;28;20481;-72
2023/10/09 02:46:20;;;;;;;15.37;5.90;;;15.70;68.80;;;;;;5025217;28;20550;-71
2023/10/09 02:48:52;;;;;;;15.57;5.43;;;15.80;68.90;;;;;;5027052;28;20995;-72
2023/10/09 02:53:57;;;;;;;21.73;5.07;;;15.70;69.10;;;;;;5027060;28;20867;-70
2023/10/09 02:56:24;;;;;;;18.63;6.30;;;15.70;69.10;;;;;;5024804;28;20475;-71
2023/10/09 02:58:52;;;;;;;24.33;6.00;;;15.70;69.20;;;;;;5026038;28;20480;-72
2023/10/09 03:01:19;;;;;;;21.53;5.63;;;15.80;67.70;;;;;;5026831;28;20547;-71
2023/10/09 03:03:45;;;;;;;19.03;5.90;;;15.80;67.60;;;;;;5026782;28;20820;-71
2023/10/09 03:06:13;;;;;;;33.07;6.23;;;15.90;67.30;;;;;;5024651;28;20491;-72
2023/10/09 03:08:42;;;;;;;23.47;6.10;;;15.90;67.90;;;;;;5025999;28;20444;-71
2023/10/09 03:11:13;;;;;;;18.30;4.93;;;15.90;68.20;;;;;;5026703;28;20472;-72
2023/10/09 03:13:43;;;;;;;27.53;6.90;;;15.90;68.20;;;;;;5025560;28;20420;-72
2023/10/09 03:16:14;;;;;;;16.20;5.17;;;16.00;67.30;;;;;;5025066;28;20481;-72
2023/10/09 03:18:39;;;;;;;19.67;5.77;;;16.00;67.30;;;;;;5028974;28;20426;-72
2023/10/09 03:21:06;;;;;;;27.37;5.60;;;15.90;67.00;;;;;;5030366;28;20502;-71
2023/10/09 03:23:32;;;;;;;18.13;5.60;;;15.90;67.00;;;;;;5031460;28;20735;-71
2023/10/09 03:25:58;;;;;;;18.03;5.43;;;15.90;66.90;;;;;;5025735;28;20465;-71
2023/10/09 03:28:24;;;;;;;20.73;6.30;;;15.90;67.20;;;;;;5030344;28;20414;-71
2023/10/09 03:30:50;;;;;;;19.50;5.67;;;15.90;67.00;;;;;;5027387;28;20422;-72
2023/10/09 03:33:17;;;;;;;21.67;4.70;;;16.00;66.90;;;;;;5032817;28;20205;-70
2023/10/09 03:35:42;;;;;;;16.97;5.10;;;16.20;66.60;;;;;;5028396;28;20503;-71
2023/10/09 03:38:18;;;;;;;26.43;6.13;;;16.10;66.40;;;;;;5029252;28;20966;-70
2023/10/09 03:40:47;;;;;;;16.97;4.80;;;16.10;66.40;;;;;;5027932;28;20204;-69
2023/10/09 03:43:14;;;;;;;15.63;5.93;;;16.10;66.30;;;;;;5030451;28;20815;-71
2023/10/09 03:45:52;;;;;;;15.60;4.77;;;16.10;66.30;;;;;;5031583;28;20466;-70
2023/10/09 03:48:22;;;;;;;17.63;5.80;;;16.10;66.30;;;;;;5018522;28;20431;-71
2023/10/09 03:50:48;;;;;;;21.70;5.70;;;16.10;66.30;;;;;;5024093;28;20432;-70
2023/10/09 03:53:14;;;;;;;19.43;5.87;;;16.20;66.30;;;;;;5017668;28;20424;-72
2023/10/09 03:55:40;;;;;;;20.53;5.37;;;16.20;66.10;;;;;;5029011;28;20866;-71
2023/10/09 03:58:07;;;;;;;24.03;5.87;;;16.20;66.10;;;;;;5031581;28;20177;-71
2023/10/09 04:00:44;;;;;;;12.63;5.20;;;16.10;66.30;;;;;;5032436;28;20424;-71
2023/10/09 04:03:11;;;;;;;23.03;6.00;;;16.00;66.60;;;;;;5032245;28;20812;-71
2023/10/09 04:05:37;;;;;;;15.47;4.70;;;16.10;66.30;;;;;;5026259;28;20447;-71
2023/10/09 04:08:11;;;;;;;21.20;5.40;;;16.20;66.10;;;;;;5023155;28;20423;-71
2023/10/09 04:11:23;;;;;;;17.47;5.37;;;16.20;66.10;;;;;;5031182;28;20192;-72
2023/10/09 04:13:23;;;;;;;23.53;6.60;;;16.20;66.10;;;;;;5031495;28;20430;-72
2023/10/09 04:15:53;;;;;;;17.13;5.33;;;16.20;66.10;;;;;;5029244;28;20463;-70
2023/10/09 04:18:20;;;;;;;24.43;6.30;;;16.20;66.10;;;;;;5023810;28;20425;-71
2023/10/09 04:23:59;;;;;;;19.43;5.30;;;16.10;66.10;;;;;;5031513;28;20488;-71
2023/10/09 04:26:24;;;;;;;25.97;5.97;;;16.10;66.30;;;;;;5019877;28;20460;-71
2023/10/09 04:28:52;;;;;;;14.50;5.07;;;16.20;66.00;;;;;;5028623;28;20442;-71
2023/10/09 04:31:19;;;;;;;19.70;5.10;;;16.10;66.40;;;;;;5025806;28;20428;-71
2023/10/09 04:34:21;;;;;;;17.17;6.13;;;16.10;66.30;;;;;;5030495;28;20454;-72
2023/10/09 04:36:46;;;;;;;14.50;5.30;;;16.10;66.10;;;;;;5025107;28;20486;-72
2023/10/09 04:44:18;;;;;;;14.80;5.23;;;16.10;66.30;;;;;;5024348;28;20672;-73
2023/10/09 04:52:45;;;;;;;23.03;5.17;;;16.00;66.90;;;;;;5024612;28;20438;-70
2023/10/09 05:02:56;;;;;;;20.47;5.10;;;16.10;66.70;;;;;;5033692;28;20906;-70
2023/10/09 05:08:29;;;;;;;15.47;5.77;;;16.00;66.60;;;;;;5029288;28;20521;-69
2023/10/09 05:16:18;;;;;;;17.37;5.73;;;15.80;66.90;;;;;;5035828;28;20479;-70
2023/10/09 05:18:55;;;;;;;20.23;5.57;;;15.80;67.20;;;;;;5037569;28;20431;-68
2023/10/09 05:32:03;;;;;;;25.07;5.50;;;15.80;67.00;;;;;;5029872;28;20792;-70
2023/10/09 05:37:33;;;;;;;30.23;6.17;;;15.80;67.00;;;;;;5025519;28;20479;-69
2023/10/09 05:40:31;;;;;;;26.77;5.43;;;15.80;67.20;;;;;;5027633;28;20433;-71
2023/10/09 05:42:59;;;;;;;17.50;5.40;;;15.70;67.20;;;;;;5025255;28;20424;-70
2023/10/09 05:46:07;;;;;;;14.20;5.80;;;15.70;67.30;;;;;;5027243;28;20466;-71
2023/10/09 05:51:12;;;;;;;21.17;6.30;;;15.60;67.50;;;;;;5021573;28;20433;-70
2023/10/09 06:04:49;;;;;;;17.17;5.40;;;15.70;68.30;;;;;;5004724;28;20528;-71
2023/10/09 06:07:22;;;;;;;9.20;4.83;;;15.80;68.50;;;;;;4996356;28;21073;-71
2023/10/09 06:09:52;;;;;;;24.63;5.67;;;16.00;68.20;;;;;;5010468;28;20951;-71
2023/10/09 06:12:49;;;;;;;19.63;6.40;;;16.00;68.20;;;;;;5006030;28;20479;-71
2023/10/09 06:18:25;;;;;;;19.90;5.87;;;15.90;68.20;;;;;;5000153;28;20427;-71
2023/10/09 06:24:08;;;;;;;17.93;5.93;;;15.80;68.60;;;;;;5000323;28;20460;-69
2023/10/09 06:26:33;;;;;;;17.40;5.47;;;15.90;68.50;;;;;;5005046;28;20931;-69
2023/10/09 06:29:14;;;;;;;22.90;5.60;;;16.00;67.00;;;;;;5008717;28;20469;-70
2023/10/09 06:31:58;;;;;;;20.47;5.70;;;16.10;66.90;;;;;;5023679;28;20190;-70
2023/10/09 06:34:35;;;;;;;18.20;5.20;;;16.20;66.90;;;;;;5017674;28;20943;-71
2023/10/09 06:37:07;;;;;;;21.73;6.30;;;16.30;66.90;;;;;;5020101;28;20520;-70
2023/10/09 06:42:33;;;;;;;16.83;5.33;;;16.40;66.70;;;;;;5028532;28;20790;-71
2023/10/09 06:45:14;;;;;;;14.07;5.63;;;16.50;66.30;;;;;;5020553;28;20412;-70
2023/10/09 06:47:55;;;;;;;26.67;6.20;;;16.50;65.80;;;;;;5021533;28;20410;-71
2023/10/09 06:52:57;;;;;;;21.00;7.27;;;16.50;66.60;;;;;;5026304;28;20455;-71
2023/10/09 06:55:37;;;;;;;21.33;6.60;;;16.50;67.00;;;;;;5022879;28;20459;-70
2023/10/09 06:58:09;;;;;;;18.50;6.70;;;16.60;67.30;;;;;;5020889;28;21344;-69
2023/10/09 07:03:29;;;;;;;17.27;6.17;;;16.50;68.00;;;;;;5027800;28;20426;-70
2023/10/09 07:06:51;;;;;;;24.03;6.87;;;16.60;67.60;;;;;;5024793;28;20475;-69
2023/10/09 07:17:15;;;;;;;19.97;6.40;;;16.90;65.40;;;;;;5020973;28;20519;-69
2023/10/09 07:25:27;;;;;;;16.70;5.10;;;16.90;66.30;;;;;;5034055;28;20408;-70
2023/10/09 07:27:55;;;;;;;17.20;5.90;;;17.00;66.30;;;;;;5027968;28;20439;-70
2023/10/09 07:38:22;;;;;;;23.90;5.83;;;17.40;65.40;;;;;;5021554;28;20430;-71
2023/10/09 07:43:39;;;;;;;17.00;5.83;;;17.50;64.80;;;;;;5021381;28;20625;-71
2023/10/09 07:48:55;;;;;;;22.17;5.47;;;17.80;64.50;;;;;;5022580;28;20420;-70
2023/10/09 07:51:31;;;;;;;17.03;6.17;;;17.80;64.50;;;;;;5026048;28;20425;-71
2023/10/09 07:54:06;;;;;;;20.57;5.40;;;17.90;64.80;;;;;;5021631;28;20479;-71
2023/10/09 07:56:38;;;;;;;19.63;5.90;;;18.00;64.50;;;;;;5023424;28;20484;-72
2023/10/09 07:59:10;;;;;;;23.27;5.40;;;18.20;64.10;;;;;;5021411;28;20471;-71
2023/10/09 08:02:02;;;;;;;15.93;5.10;;;18.20;64.20;;;;;;5028030;28;20983;-70
2023/10/09 08:04:38;;;;;;;19.27;5.70;;;18.20;64.20;;;;;;5026060;28;20521;-72
2023/10/09 08:07:25;;;;;;;18.20;5.87;;;18.20;64.20;;;;;;5032020;28;20475;-70
2023/10/09 08:18:18;;;;;;;20.50;5.93;;;18.70;63.20;;;;;;5024349;28;20479;-70
2023/10/09 08:23:48;;;;;;;16.00;5.00;;;18.80;63.80;;;;;;5028318;28;20517;-72
2023/10/09 08:26:15;;;;;;;26.73;5.83;;;18.80;63.90;;;;;;5022591;28;20464;-71
2023/10/09 08:28:45;;;;;;;17.10;5.50;;;18.80;64.20;;;;;;5027281;28;20432;-69
2023/10/09 08:31:19;;;;;;;15.60;5.20;;;18.90;64.20;;;;;;5019842;28;20490;-71
2023/10/09 08:33:56;;;;;;;20.63;5.50;;;19.00;64.20;;;;;;5029958;28;20442;-71
2023/10/09 08:36:22;;;;;;;18.13;5.77;;;19.00;63.90;;;;;;5025252;28;20491;-71
2023/10/09 08:38:48;;;;;;;23.50;6.10;;;19.00;63.90;;;;;;5033547;28;20429;-72
2023/10/09 08:41:22;;;;;;;35.70;6.53;;;19.10;63.90;;;;;;5030926;28;20928;-70
2023/10/09 08:43:53;;;;;;;24.97;6.00;;;19.20;64.10;;;;;;5029977;28;20263;-71
2023/10/09 08:46:26;;;;;;;18.97;5.10;;;19.30;64.20;;;;;;5024964;28;20475;-72
2023/10/09 08:48:54;;;;;;;20.17;6.20;;;19.40;63.80;;;;;;5024903;28;20428;-71
2023/10/09 08:51:21;;;;;;;14.33;5.03;;;19.60;63.40;;;;;;5028445;28;20535;-71
2023/10/09 08:53:46;;;;;;;24.40;6.67;;;19.70;63.10;;;;;;5028127;28;20439;-70
2023/10/09 08:56:21;;;;;;;15.93;6.63;;;19.80;63.40;;;;;;5023826;28;20479;-71
2023/10/09 08:58:48;;;;;;;21.70;6.63;;;19.80;63.40;;;;;;5029056;28;20263;-70
2023/10/09 09:01:21;;;;;;;26.97;8.57;;;19.90;63.20;;;;;;5031675;28;20429;-71
2023/10/09 09:03:48;;;;;;;15.93;5.50;;;20.10;62.80;;;;;;5026908;28;20522;-69
2023/10/09 09:06:14;;;;;;;21.77;6.30;;;20.20;62.80;;;;;;5029286;28;20465;-71
2023/10/09 09:08:40;;;;;;;20.03;6.70;;;20.30;62.50;;;;;;5030682;28;20445;-71
2023/10/09 09:11:17;;;;;;;34.27;8.20;;;20.40;62.50;;;;;;5029465;28;20500;-70
2023/10/09 09:13:51;;;;;;;26.57;8.10;;;20.60;62.20;;;;;;5024334;28;20468;-69
2023/10/09 09:16:22;;;;;;;26.23;8.00;;;20.80;61.70;;;;;;5023104;28;20479;-71
2023/10/09 09:19:00;;;;;;;22.10;7.47;;;20.90;62.00;;;;;;5028337;28;20427;-71
2023/10/09 09:21:27;;;;;;;18.73;7.50;;;20.80;62.20;;;;;;5025944;28;20422;-72
2023/10/09 09:24:05;;;;;;;17.50;7.17;;;20.90;62.20;;;;;;5022886;28;20457;-71
2023/10/09 09:26:44;;;;;;;19.60;6.70;;;21.00;62.00;;;;;;5018607;28;20466;-72
2023/10/09 09:29:11;;;;;;;18.33;6.33;;;21.20;61.00;;;;;;5027543;28;20769;-70
2023/10/09 09:31:41;;;;;;;34.57;9.37;;;21.30;60.40;;;;;;5023706;28;20424;-70
2023/10/09 09:34:17;;;;;;;36.07;8.30;;;21.30;61.50;;;;;;5025155;28;20427;-71
2023/10/09 09:36:58;;;;;;;24.20;8.00;;;21.10;62.20;;;;;;5019890;28;20974;-71
2023/10/09 09:39:27;;;;;;;28.50;9.80;;;21.10;62.50;;;;;;5025463;28;20437;-71
2023/10/09 09:42:07;;;;;;;25.20;8.53;;;21.20;62.60;;;;;;5028831;28;21152;-71
2023/10/09 09:44:43;;;;;;;20.50;7.57;;;21.20;61.70;;;;;;5029067;28;20431;-71
2023/10/09 09:47:13;;;;;;;32.07;8.37;;;21.40;61.90;;;;;;5028753;28;20551;-71
2023/10/09 09:49:41;;;;;;;30.23;9.27;;;21.50;61.90;;;;;;5029903;28;20861;-72
2023/10/09 09:52:11;;;;;;;45.10;9.40;;;21.50;61.50;;;;;;5030094;28;21063;-71
2023/10/09 09:54:38;;;;;;;27.33;8.67;;;21.40;61.60;;;;;;5023812;28;20442;-70
2023/10/09 09:57:08;;;;;;;24.07;7.77;;;21.50;61.90;;;;;;5033079;28;20522;-70
2023/10/09 09:59:40;;;;;;;27.03;8.70;;;21.60;61.70;;;;;;5034847;28;21006;-71
2023/10/09 10:02:10;;;;;;;24.63;7.23;;;21.70;61.90;;;;;;5029567;28;20500;-71
2023/10/09 10:04:39;;;;;;;31.00;8.33;;;21.80;62.00;;;;;;5027369;28;20495;-71
2023/10/09 10:07:09;;;;;;;25.80;8.40;;;22.00;62.00;;;;;;5033998;28;20549;-71
2023/10/09 10:09:44;;;;;;;23.60;8.07;;;22.10;61.30;;;;;;5032100;28;20652;-71
2023/10/09 10:12:11;;;;;;;29.00;7.93;;;22.20;60.70;;;;;;5032098;28;20429;-71
2023/10/09 10:15:08;;;;;;;22.60;7.20;;;22.20;61.20;;;;;;5032316;28;20445;-70
2023/10/09 10:17:59;;;;;;;23.60;6.40;;;22.30;59.90;;;;;;5030386;28;20478;-72
2023/10/09 10:20:25;;;;;;;26.23;6.10;;;22.20;58.70;;;;;;5028591;28;20438;-72
2023/10/09 10:23:13;;;;;;;25.13;5.63;;;22.30;58.10;;;;;;5034521;28;20416;-73
2023/10/09 10:25:43;;;;;;;23.00;5.80;;;22.40;58.00;;;;;;5031979;28;20468;-72
2023/10/09 10:31:09;;;;;;;19.83;5.10;;;22.70;56.80;;;;;;5027649;28;20432;-72
2023/10/09 10:33:56;;;;;;;26.93;5.80;;;22.90;56.50;;;;;;5029989;28;20436;-71
2023/10/09 10:36:26;;;;;;;30.37;6.50;;;22.90;55.80;;;;;;5031016;28;20484;-72
2023/10/09 10:39:11;;;;;;;24.63;6.00;;;23.00;55.70;;;;;;5031557;28;20449;-71
2023/10/09 10:41:54;;;;;;;26.13;6.73;;;23.10;55.80;;;;;;5026226;28;20448;-71
2023/10/09 10:44:37;;;;;;;35.93;6.50;;;23.10;55.70;;;;;;5028353;28;20429;-71
2023/10/09 10:47:22;;;;;;;28.60;5.63;;;23.10;55.70;;;;;;5029277;28;20501;-71
2023/10/09 10:49:58;;;;;;;25.27;6.37;;;23.10;55.30;;;;;;5025226;28;21030;-72
2023/10/09 10:52:41;;;;;;;24.63;5.47;;;23.10;55.40;;;;;;5028034;28;20430;-71
2023/10/09 10:55:48;;;;;;;25.50;5.60;;;23.20;56.00;;;;;;5022013;28;20463;-70
2023/10/09 10:58:24;;;;;;;22.80;7.03;;;23.20;54.90;;;;;;5032463;28;20448;-71
2023/10/09 11:06:17;;;;;;;19.57;4.97;;;23.30;55.30;;;;;;5028071;28;20485;-70
2023/10/09 11:08:59;;;;;;;19.57;5.30;;;23.50;54.20;;;;;;5026872;28;20427;-72
2023/10/09 11:11:41;;;;;;;27.80;6.30;;;23.70;53.70;;;;;;5028136;28;20762;-73
2023/10/09 11:14:44;;;;;;;17.60;4.80;;;23.80;54.20;;;;;;5023744;28;20423;-71
2023/10/09 11:17:03;;;;;;;20.60;4.80;;;23.90;53.40;;;;;;5026167;28;20464;-72
2023/10/09 11:19:31;;;;;;;15.93;4.80;;;24.10;52.50;;;;;;5027838;28;20424;-71
2023/10/09 11:24:34;;;;;;;28.70;5.77;;;24.40;51.40;;;;;;5031215;28;20420;-72
2023/10/09 11:27:07;;;;;;;16.57;4.73;;;24.60;50.90;;;;;;5028693;28;20491;-71
2023/10/09 11:32:22;;;;;;;20.83;5.60;;;24.60;50.90;;;;;;5027481;28;20421;-71
2023/10/09 11:34:51;;;;;;;17.50;4.50;;;24.60;50.10;;;;;;5026796;28;20426;-73
2023/10/09 11:37:31;;;;;;;16.43;4.53;;;24.50;50.60;;;;;;5023243;28;20577;-71
2023/10/09 11:39:58;;;;;;;15.33;5.20;;;24.50;49.30;;;;;;5034267;28;20434;-71
2023/10/09 11:42:36;;;;;;;14.60;4.67;;;24.30;50.10;;;;;;5034414;28;20433;-73
2023/10/09 11:45:04;;;;;;;22.50;5.53;;;24.30;50.90;;;;;;5030936;28;20517;-72
2023/10/09 11:47:45;;;;;;;14.37;4.43;;;24.20;51.20;;;;;;5035493;28;21171;-73
2023/10/09 11:50:17;;;;;;;19.10;5.00;;;24.10;51.20;;;;;;5031466;28;20424;-72
2023/10/09 11:55:48;;;;;;;18.13;6.17;;;24.00;51.30;;;;;;5030089;28;20837;-70
2023/10/09 11:58:16;;;;;;;15.03;5.80;;;24.10;52.20;;;;;;5029174;28;20420;-71
2023/10/09 12:00:47;;;;;;;14.17;4.83;;;24.10;53.60;;;;;;5019519;28;20445;-71
2023/10/09 12:03:14;;;;;;;17.70;6.03;;;24.10;53.80;;;;;;5024108;28;20416;-70
2023/10/09 12:05:43;;;;;;;16.47;5.80;;;24.10;53.60;;;;;;5022517;28;20461;-72
2023/10/09 12:08:10;;;;;;;16.40;4.77;;;24.00;54.20;;;;;;5031915;28;20911;-72
2023/10/09 12:10:38;;;;;;;19.80;5.27;;;24.00;54.20;;;;;;5030968;28;20447;-72
2023/10/09 12:13:05;;;;;;;14.33;4.77;;;24.00;53.80;;;;;;5033352;28;20440;-70
2023/10/09 12:15:37;;;;;;;12.23;4.87;;;24.00;54.20;;;;;;5029162;28;21030;-70
2023/10/09 12:18:14;;;;;;;15.60;5.20;;;24.10;55.00;;;;;;5030299;28;20438;-71
2023/10/09 12:20:41;;;;;;;23.47;5.83;;;24.30;55.60;;;;;;5028845;28;20810;-71
2023/10/09 12:23:06;;;;;;;21.33;6.13;;;24.40;53.70;;;;;;5031709;28;20425;-73
2023/10/09 12:25:34;;;;;;;13.97;5.33;;;24.50;53.60;;;;;;5026299;28;20455;-69
2023/10/09 12:28:01;;;;;;;17.17;4.70;;;24.60;49.40;;;;;;5031784;28;20311;-72
2023/10/09 12:30:29;;;;;;;20.00;4.73;;;24.90;51.40;;;;;;5028364;28;20430;-70
2023/10/09 12:32:57;;;;;;;17.23;4.33;;;25.20;50.90;;;;;;5030557;28;20951;-72
2023/10/09 12:35:28;;;;;;;11.03;5.33;;;25.30;48.30;;;;;;5023818;28;20475;-71
2023/10/09 12:37:56;;;;;;;9.87;4.90;;;25.60;43.80;;;;;;5039295;28;20459;-73
2023/10/09 12:40:32;;;;;;;11.53;4.73;;;25.80;37.80;;;;;;5031566;28;20456;-74
2023/10/09 12:42:59;;;;;;;17.53;5.97;;;26.10;34.00;;;;;;5039073;28;20418;-73
2023/10/09 12:45:26;;;;;;;11.03;5.20;;;26.40;32.80;;;;;;5028972;28;20454;-72
2023/10/09 12:48:03;;;;;;;17.67;6.47;;;26.50;31.30;;;;;;5039405;28;20550;-72
2023/10/09 12:50:34;;;;;;;11.17;5.57;;;26.50;32.10;;;;;;5037277;28;20431;-73
2023/10/09 12:53:07;;;;;;;12.53;6.07;;;26.50;32.80;;;;;;5038755;28;20428;-72
2023/10/09 12:55:42;;;;;;;12.17;5.57;;;26.60;33.70;;;;;;5036190;28;20459;-72
2023/10/09 12:58:11;;;;;;;19.03;6.33;;;26.70;31.90;;;;;;5042100;28;20434;-72
2023/10/09 13:00:39;;;;;;;15.47;6.00;;;26.70;33.70;;;;;;5043027;28;20445;-71
2023/10/09 13:03:16;;;;;;;16.53;5.87;;;26.50;36.00;;;;;;5043486;28;20973;-70
2023/10/09 13:05:51;;;;;;;16.03;6.90;;;26.10;36.00;;;;;;5041245;28;20478;-70
2023/10/09 13:08:31;;;;;;;19.53;6.40;;;25.80;37.50;;;;;;5035195;28;20474;-70
2023/10/09 13:11:04;;;;;;;17.37;7.23;;;25.80;37.90;;;;;;5039322;28;20427;-71
2023/10/09 13:13:51;;;;;;;16.80;6.77;;;25.70;40.30;;;;;;5037425;28;20437;-70
2023/10/09 13:16:24;;;;;;;18.10;6.07;;;25.70;41.80;;;;;;5038279;28;20467;-72
2023/10/09 13:18:51;;;;;;;19.07;7.50;;;25.80;41.50;;;;;;5040092;28;20432;-71
2023/10/09 13:21:18;;;;;;;12.83;5.23;;;25.90;41.40;;;;;;5033710;28;20422;-72
2023/10/09 13:23:46;;;;;;;20.50;6.40;;;26.10;40.20;;;;;;5033898;28;20492;-70
2023/10/09 13:26:18;;;;;;;18.50;6.97;;;26.30;39.80;;;;;;5029502;28;20463;-72
2023/10/09 13:28:49;;;;;;;13.90;5.93;;;26.20;37.50;;;;;;5029615;28;20447;-70
2023/10/09 13:31:15;;;;;;;15.00;5.87;;;26.50;38.00;;;;;;5033560;28;20523;-71
2023/10/09 13:33:42;;;;;;;18.17;6.87;;;26.90;36.60;;;;;;5031253;28;20431;-72
2023/10/09 13:36:27;;;;;;;14.73;6.80;;;27.20;33.10;;;;;;5030659;28;20567;-71
2023/10/09 13:38:54;;;;;;;15.67;6.73;;;27.40;30.80;;;;;;5034439;28;20452;-71
2023/10/09 13:41:21;;;;;;;17.37;6.87;;;27.70;25.90;;;;;;5030375;28;20480;-69
2023/10/09 13:43:47;;;;;;;19.40;7.90;;;27.60;24.50;;;;;;5023572;28;20413;-71
2023/10/09 13:46:17;;;;;;;16.10;6.40;;;27.70;24.10;;;;;;5032252;28;20483;-72
2023/10/09 13:48:43;;;;;;;22.43;6.97;;;27.80;21.80;;;;;;5034558;28;20658;-71
2023/10/09 13:51:17;;;;;;;14.67;6.90;;;27.60;22.30;;;;;;5032991;28;20868;-72
2023/10/09 13:53:46;;;;;;;16.50;7.10;;;27.70;22.40;;;;;;5037014;28;20515;-71
2023/10/09 13:56:18;;;;;;;15.97;6.93;;;28.00;22.50;;;;;;5032007;28;20852;-71
2023/10/09 13:58:49;;;;;;;18.70;7.30;;;28.20;22.30;;;;;;5034160;28;20412;-69
2023/10/09 14:01:27;;;;;;;18.93;7.73;;;28.40;22.10;;;;;;5035121;28;20738;-70
2023/10/09 14:03:57;;;;;;;13.17;6.70;;;28.60;21.90;;;;;;5029165;28;20465;-71
2023/10/09 14:06:30;;;;;;;16.30;6.63;;;28.40;21.90;;;;;;5029866;28;20478;-73
2023/10/09 14:09:05;;;;;;;16.80;6.80;;;28.20;22.00;;;;;;5026981;28;20909;-72
2023/10/09 14:11:37;;;;;;;15.23;6.20;;;27.90;22.70;;;;;;5028857;28;20431;-71
2023/10/09 14:14:16;;;;;;;12.03;6.40;;;27.70;22.70;;;;;;5028115;28;21165;-72
2023/10/09 14:16:42;;;;;;;15.10;6.70;;;27.60;23.70;;;;;;5029574;28;20503;-70
2023/10/09 14:19:13;;;;;;;14.30;6.63;;;27.70;24.10;;;;;;5036398;28;20427;-69
2023/10/09 14:21:40;;;;;;;14.97;6.57;;;27.60;24.20;;;;;;5032736;28;20408;-71
2023/10/09 14:24:15;;;;;;;13.50;6.70;;;27.50;24.60;;;;;;5023456;28;20424;-71
2023/10/09 14:26:41;;;;;;;15.40;6.67;;;27.30;24.40;;;;;;5028124;28;20470;-71
2023/10/09 14:29:07;;;;;;;20.20;7.10;;;27.20;23.80;;;;;;5023384;28;20451;-74
2023/10/09 14:31:38;;;;;;;13.17;5.87;;;27.10;24.00;;;;;;5025307;28;20455;-69
2023/10/09 14:34:05;;;;;;;15.20;6.90;;;26.90;24.20;;;;;;5031149;28;20934;-71
2023/10/09 14:36:34;;;;;;;20.30;7.07;;;26.80;24.40;;;;;;5025569;28;20565;-71
2023/10/09 14:39:00;;;;;;;13.50;6.10;;;26.80;25.60;;;;;;5018504;28;20518;-73
2023/10/09 14:41:27;;;;;;;13.73;5.97;;;26.60;24.50;;;;;;5018921;28;20534;-72
2023/10/09 14:43:54;;;;;;;11.93;6.40;;;26.60;25.10;;;;;;5025699;28;20426;-73
2023/10/09 14:46:26;;;;;;;17.00;5.67;;;26.60;25.90;;;;;;5024647;28;20836;-73
2023/10/09 14:48:53;;;;;;;17.73;5.17;;;26.50;25.10;;;;;;5029193;28;20433;-72
2023/10/09 14:51:26;;;;;;;23.17;7.10;;;26.50;25.30;;;;;;5026116;28;20425;-71
2023/10/09 14:53:58;;;;;;;17.10;6.20;;;26.50;25.80;;;;;;5025676;28;20489;-72
2023/10/09 14:56:28;;;;;;;16.10;6.47;;;26.30;25.90;;;;;;5023039;28;20491;-72
2023/10/09 14:58:58;;;;;;;14.07;5.23;;;26.20;26.10;;;;;;5028779;28;20426;-72
2023/10/09 15:01:28;;;;;;;12.07;5.73;;;26.30;26.20;;;;;;5025374;28;20428;-73
2023/10/09 15:03:59;;;;;;;13.80;5.67;;;26.30;26.70;;;;;;5027733;28;20423;-72
2023/10/09 15:06:27;;;;;;;12.13;6.07;;;26.30;26.80;;;;;;5021057;28;20552;-70
2023/10/09 15:08:55;;;;;;;13.07;5.80;;;26.20;27.90;;;;;;5025872;28;21060;-74
2023/10/09 15:11:25;;;;;;;11.53;5.43;;;26.20;27.50;;;;;;5027381;28;20422;-70
2023/10/09 15:13:57;;;;;;;16.60;7.00;;;26.30;27.30;;;;;;5028072;28;20438;-72
2023/10/09 15:16:26;;;;;;;14.73;6.60;;;26.30;28.10;;;;;;5031096;28;20487;-72
2023/10/09 15:18:53;;;;;;;12.23;6.10;;;26.30;28.50;;;;;;5027016;28;20434;-72
2023/10/09 15:21:22;;;;;;;14.07;6.87;;;26.20;28.10;;;;;;5029464;28;20467;-73
2023/10/09 15:23:58;;;;;;;17.50;6.70;;;26.00;28.40;;;;;;5031159;28;20430;-71
2023/10/09 15:26:24;;;;;;;12.50;6.60;;;25.90;28.90;;;;;;5031049;28;20520;-74
2023/10/09 15:28:51;;;;;;;19.30;6.53;;;25.90;29.20;;;;;;5027027;28;20434;-72
2023/10/09 15:31:18;;;;;;;12.63;6.80;;;25.80;30.90;;;;;;5032842;28;20789;-71
2023/10/09 15:33:44;;;;;;;16.77;8.37;;;25.80;32.00;;;;;;5031603;28;20422;-72